Terminal Aerodrome Forecast
Issued by NWS

Home | Current Version | Previous Version | Text Only | Print | Product List | Glossary On
Versions: 1 2 3 4 5 6 7 8 9 10 11 12 13 14 15 16 17 18 19 20 21 22 23 24 25 26 27 28 29 30 31 32 33 34 35 36 37 38
000
FTUS45 KGJT 280002 RRA
TAFASE
TAF
KASE 280002Z 2800/2824 31008KT P6SM VCSH SCT050 SCT070 BKN080
     FM280100 18006KT P6SM VCSH SCT040 OVC070
      TEMPO 2801/2805 4SM SHRA BKN040
     FM280500 21004KT P6SM SCT060 BKN080
     FM281500 02003KT P6SM VCSH BKN070
     FM281900 36006KT P6SM VCTS SCT070CB BKN090=

USA.gov is the U.S. government's official web portal to all federal, state and local government web resources and services.